Godspeed — OEX6195 — position and weather

sailwx.info

Track history (hours):
 
Tides and Currents Weather Stations Pressure Air Temp Water Temp Dewpoint Dewpoint Depression Visibility Wind Speed Wind Dir Waves Ship Positions

Godspeed

Last reported at 2018-Jun-16 11:14 UTC. Time now 2018-Jun-24 16:43 UTC.
Position N 37°41' W 025°06'.
Warning: this ship's position is 8 days out of date.

Length 12 m.

Type: Sailing vessel. MMSI: 203545300.

Date/timePositionNaut miles runAvg speedWind from/ knotsBaromVisibWave heightAir tempDewpointWater temp
2018-Jun-16 11:14N 37°41' W 025°06'2 6.7
2018-Jun-16 10:59N 37°41' W 025°08'3 6.8
2018-Jun-16 10:30N 37°41' W 025°12'3 6.6
2018-Jun-16 10:00N 37°41' W 025°16'3 6.2
2018-Jun-16 09:29N 37°42' W 025°20'3 6.4
2018-Jun-16 08:59N 37°42' W 025°24'11 6.4
2018-Jun-16 07:16N 37°43' W 025°38'2 0.2
2018-Jun-15 18:06N 37°44' W 025°40'0 0.1
2018-Jun-15 18:00N 37°44' W 025°40'0 0.0
2018-Jun-15 17:30N 37°44' W 025°40'0 0.6
2018-Jun-15 16:58N 37°44' W 025°40'0 1.0
2018-Jun-15 16:30N 37°44' W 025°39'5 6.6
2018-Jun-15 15:48N 37°45' W 025°45'2 6.6
2018-Jun-15 15:30N 37°46' W 025°47'3 6.7
2018-Jun-15 15:00N 37°47' W 025°51'3 6.6
2018-Jun-15 14:30N 37°48' W 025°55'3 6.7
2018-Jun-15 14:00N 37°49' W 025°59'3 6.0
2018-Jun-15 13:30N 37°49' W 026°03'3 6.6
2018-Jun-15 13:00N 37°50' W 026°07'3 6.5
2018-Jun-15 12:30N 37°51' W 026°11'3 6.5
2018-Jun-15 12:00N 37°52' W 026°15'3 6.2
2018-Jun-15 11:30N 37°52' W 026°19'3 6.5
2018-Jun-15 11:00N 37°53' W 026°23'3 6.3
2018-Jun-15 10:30N 37°54' W 026°27'3 6.2
2018-Jun-15 09:58N 37°55' W 026°31'3 6.7
2018-Jun-15 09:30N 37°56' W 026°34'59 6.8
2018-Jun-15 00:50N 38°14' W 027°45'2 6.8
2018-Jun-15 00:30N 38°15' W 027°48'3 6.5
2018-Jun-15 00:00N 38°16' W 027°52'4 7.2
2018-Jun-14 23:30N 38°16' W 027°57'3 6.7
2018-Jun-14 22:59N 38°17' W 028°01'3 6.5
2018-Jun-14 22:30N 38°18' W 028°05'3 6.2
2018-Jun-14 22:00N 38°18' W 028°09'3 6.2
2018-Jun-14 21:30N 38°20' W 028°12'4 7.0
2018-Jun-14 20:59N 38°22' W 028°16'3 7.2
2018-Jun-14 20:30N 38°23' W 028°20'4 7.0
2018-Jun-14 20:00N 38°24' W 028°24'3 6.8
2018-Jun-14 19:30N 38°25' W 028°29'4 7.1
2018-Jun-14 19:00N 38°28' W 028°32'3 6.8
2018-Jun-14 18:30N 38°30' W 028°35'3 0.1
2018-Jun-13 15:33N 38°32' W 028°38'0 0.0
2018-Jun-13 15:27N 38°32' W 028°38'0 0.0
2018-Jun-13 14:39N 38°32' W 028°38'0 0.0
2018-Jun-13 14:27N 38°32' W 028°38'0 0.0
2018-Jun-13 13:45N 38°32' W 028°38'0 0.0
2018-Jun-13 13:27N 38°32' W 028°38'0 0.0
2018-Jun-13 13:00N 38°32' W 028°38'0 0.0
2018-Jun-13 12:30N 38°32' W 028°38'0 0.0
2018-Jun-13 11:30N 38°32' W 028°38'0 0.0
2018-Jun-13 10:57N 38°32' W 028°38'0 0.0
2018-Jun-13 10:27N 38°32' W 028°38'0 0.0
2018-Jun-13 09:39N 38°32' W 028°38'0 0.0
2018-Jun-13 09:30N 38°32' W 028°38'0 0.0
2018-Jun-13 09:00N 38°32' W 028°38'0 0.0
2018-Jun-13 08:21N 38°32' W 028°38'0 0.0
2018-Jun-13 07:57N 38°32' W 028°38'0 0.0
2018-Jun-13 07:30N 38°32' W 028°38'0 0.0
2018-Jun-13 06:54N 38°32' W 028°38'0 0.0
2018-Jun-13 06:26N 38°32' W 028°38'1 2.6
2018-Jun-13 06:00N 38°31' W 028°37'2 4.4
2018-Jun-13 05:30N 38°31' W 028°40'2 4.8
2018-Jun-13 05:00N 38°30' W 028°43'2 2.9
2018-Jun-13 04:28N 38°30' W 028°45'2 3.6
2018-Jun-13 04:00N 38°30' W 028°47'2 4.3
2018-Jun-13 03:30N 38°29' W 028°50'2 4.4
2018-Jun-13 03:00N 38°29' W 028°52'2 4.4
2018-Jun-13 02:30N 38°28' W 028°55'3 5.1
2018-Jun-13 02:00N 38°28' W 028°58'3 6.2
2018-Jun-13 01:30N 38°27' W 029°02'3 6.0
2018-Jun-13 00:59N 38°26' W 029°06'3 6.1
2018-Jun-13 00:30N 38°25' W 029°09'3 6.6
2018-Jun-13 00:00N 38°24' W 029°13'3 5.5
2018-Jun-12 23:29N 38°22' W 029°16'7 3.9
2018-Jun-12 21:48N 38°17' W 029°22'1 3.2
2018-Jun-12 21:23N 38°16' W 029°23'2 3.5
2018-Jun-12 20:56N 38°15' W 029°24'2 3.7
2018-Jun-12 20:29N 38°14' W 029°26'  
Track history (hours):
 
Tides and Currents Weather Stations Pressure Air Temp Water Temp Dewpoint Dewpoint Depression Visibility Wind Speed Wind Dir Waves Ship Positions

Godspeed

Last reported at 2018-Jun-16 11:14 UTC. Time now 2018-Jun-24 16:43 UTC.
Position N 37°41' W 025°06'.
Warning: this ship's position is 8 days out of date.

Length 12 m.

Type: Sailing vessel. MMSI: 203545300.

Date/timePositionNaut miles runAvg speedWind from/ knotsBaromVisibWave heightAir tempDewpointWater temp
2018-Jun-16 11:14N 37°41' W 025°06'2 6.7
2018-Jun-16 10:59N 37°41' W 025°08'3 6.8
2018-Jun-16 10:30N 37°41' W 025°12'3 6.6
2018-Jun-16 10:00N 37°41' W 025°16'3 6.2
2018-Jun-16 09:29N 37°42' W 025°20'3 6.4
2018-Jun-16 08:59N 37°42' W 025°24'11 6.4
2018-Jun-16 07:16N 37°43' W 025°38'2 0.2
2018-Jun-15 18:06N 37°44' W 025°40'0 0.1
2018-Jun-15 18:00N 37°44' W 025°40'0 0.0
2018-Jun-15 17:30N 37°44' W 025°40'0 0.6
2018-Jun-15 16:58N 37°44' W 025°40'0 1.0
2018-Jun-15 16:30N 37°44' W 025°39'5 6.6
2018-Jun-15 15:48N 37°45' W 025°45'2 6.6
2018-Jun-15 15:30N 37°46' W 025°47'3 6.7
2018-Jun-15 15:00N 37°47' W 025°51'3 6.6
2018-Jun-15 14:30N 37°48' W 025°55'3 6.7
2018-Jun-15 14:00N 37°49' W 025°59'3 6.0
2018-Jun-15 13:30N 37°49' W 026°03'3 6.6
2018-Jun-15 13:00N 37°50' W 026°07'3 6.5
2018-Jun-15 12:30N 37°51' W 026°11'3 6.5
2018-Jun-15 12:00N 37°52' W 026°15'3 6.2
2018-Jun-15 11:30N 37°52' W 026°19'3 6.5
2018-Jun-15 11:00N 37°53' W 026°23'3 6.3
2018-Jun-15 10:30N 37°54' W 026°27'3 6.2
2018-Jun-15 09:58N 37°55' W 026°31'3 6.7
2018-Jun-15 09:30N 37°56' W 026°34'59 6.8
2018-Jun-15 00:50N 38°14' W 027°45'2 6.8
2018-Jun-15 00:30N 38°15' W 027°48'3 6.5
2018-Jun-15 00:00N 38°16' W 027°52'4 7.2
2018-Jun-14 23:30N 38°16' W 027°57'3 6.7
2018-Jun-14 22:59N 38°17' W 028°01'3 6.5
2018-Jun-14 22:30N 38°18' W 028°05'3 6.2
2018-Jun-14 22:00N 38°18' W 028°09'3 6.2
2018-Jun-14 21:30N 38°20' W 028°12'4 7.0
2018-Jun-14 20:59N 38°22' W 028°16'3 7.2
2018-Jun-14 20:30N 38°23' W 028°20'4 7.0
2018-Jun-14 20:00N 38°24' W 028°24'3 6.8
2018-Jun-14 19:30N 38°25' W 028°29'4 7.1
2018-Jun-14 19:00N 38°28' W 028°32'3 6.8
2018-Jun-14 18:30N 38°30' W 028°35'3 0.1
2018-Jun-13 15:33N 38°32' W 028°38'0 0.0
2018-Jun-13 15:27N 38°32' W 028°38'0 0.0
2018-Jun-13 14:39N 38°32' W 028°38'0 0.0
2018-Jun-13 14:27N 38°32' W 028°38'0 0.0
2018-Jun-13 13:45N 38°32' W 028°38'0 0.0
2018-Jun-13 13:27N 38°32' W 028°38'0 0.0
2018-Jun-13 13:00N 38°32' W 028°38'0 0.0
2018-Jun-13 12:30N 38°32' W 028°38'0 0.0
2018-Jun-13 11:30N 38°32' W 028°38'0 0.0
2018-Jun-13 10:57N 38°32' W 028°38'0 0.0
2018-Jun-13 10:27N 38°32' W 028°38'0 0.0
2018-Jun-13 09:39N 38°32' W 028°38'0 0.0
2018-Jun-13 09:30N 38°32' W 028°38'0 0.0
2018-Jun-13 09:00N 38°32' W 028°38'0 0.0
2018-Jun-13 08:21N 38°32' W 028°38'0 0.0
2018-Jun-13 07:57N 38°32' W 028°38'0 0.0
2018-Jun-13 07:30N 38°32' W 028°38'0 0.0
2018-Jun-13 06:54N 38°32' W 028°38'0 0.0
2018-Jun-13 06:26N 38°32' W 028°38'1 2.6
2018-Jun-13 06:00N 38°31' W 028°37'2 4.4
2018-Jun-13 05:30N 38°31' W 028°40'2 4.8
2018-Jun-13 05:00N 38°30' W 028°43'2 2.9
2018-Jun-13 04:28N 38°30' W 028°45'2 3.6
2018-Jun-13 04:00N 38°30' W 028°47'2 4.3
2018-Jun-13 03:30N 38°29' W 028°50'2 4.4
2018-Jun-13 03:00N 38°29' W 028°52'2 4.4
2018-Jun-13 02:30N 38°28' W 028°55'3 5.1
2018-Jun-13 02:00N 38°28' W 028°58'3 6.2
2018-Jun-13 01:30N 38°27' W 029°02'3 6.0
2018-Jun-13 00:59N 38°26' W 029°06'3 6.1
2018-Jun-13 00:30N 38°25' W 029°09'3 6.6
2018-Jun-13 00:00N 38°24' W 029°13'3 5.5
2018-Jun-12 23:29N 38°22' W 029°16'7 3.9
2018-Jun-12 21:48N 38°17' W 029°22'1 3.2
2018-Jun-12 21:23N 38°16' W 029°23'2 3.5
2018-Jun-12 20:56N 38°15' W 029°24'2 3.7
2018-Jun-12 20:29N 38°14' W 029°26'  

Dump ship's entire track history